createdAt,value
2019-03-27T00:00:06.749Z,3.71
2019-03-27T00:02:32.587Z,3.91
2019-03-27T00:04:58.413Z,3.91
2019-03-27T00:07:24.247Z,3.93
2019-03-27T00:09:50.077Z,4.04
2019-03-27T00:12:15.902Z,4.07
2019-03-27T00:14:44.704Z,4.00
2019-03-27T00:17:10.564Z,4.06
2019-03-27T00:19:36.383Z,3.97
2019-03-27T00:22:02.302Z,3.95
2019-03-27T00:24:28.153Z,3.96
2019-03-27T00:26:53.973Z,3.99
2019-03-27T00:29:20.117Z,3.92
2019-03-27T00:31:45.939Z,3.98
2019-03-27T00:34:11.761Z,3.84
2019-03-27T00:36:37.563Z,3.95
2019-03-27T00:39:04.589Z,3.79
2019-03-27T00:41:30.399Z,3.79
2019-03-27T00:43:56.227Z,3.69
2019-03-27T00:46:22.343Z,3.87
2019-03-27T00:48:48.164Z,3.88
2019-03-27T00:51:14.006Z,3.70
2019-03-27T00:53:39.835Z,3.76
2019-03-27T00:56:05.655Z,3.66
2019-03-27T00:58:31.473Z,3.83
2019-03-27T01:01:09.056Z,3.99
2019-03-27T01:03:34.989Z,3.80
2019-03-27T01:06:01.717Z,3.94
2019-03-27T01:39:48.803Z,3.90
2019-03-27T01:42:14.738Z,3.97
2019-03-27T01:44:40.736Z,3.98
2019-03-27T01:47:06.563Z,4.18
2019-03-27T01:49:32.411Z,4.12
2019-03-27T01:51:58.244Z,4.16
2019-03-27T01:54:24.108Z,3.95
2019-03-27T01:56:49.978Z,3.94
2019-03-27T01:59:15.835Z,3.89
2019-03-27T02:01:41.683Z,3.86
2019-03-27T02:04:07.548Z,3.82
2019-03-27T02:06:33.383Z,3.80
2019-03-27T02:08:59.224Z,3.83
2019-03-27T02:11:25.054Z,3.86
2019-03-27T02:13:50.885Z,3.89
2019-03-27T02:16:16.739Z,3.85
2019-03-27T02:18:42.564Z,3.93
2019-03-27T02:21:08.713Z,3.87
2019-03-27T02:23:34.750Z,3.96
2019-03-27T02:26:00.623Z,4.01
2019-03-27T02:28:26.444Z,3.95
2019-03-27T02:30:52.297Z,3.92
2019-03-27T02:33:18.125Z,3.97
2019-03-27T02:35:43.970Z,3.97
2019-03-27T02:38:09.792Z,3.85
2019-03-27T02:40:35.657Z,3.90
2019-03-27T02:43:01.493Z,4.05
2019-03-27T02:45:27.346Z,4.05
2019-03-27T02:47:53.191Z,4.02
2019-03-27T02:50:19.063Z,4.04
2019-03-27T02:52:44.912Z,4.03
2019-03-27T02:55:10.783Z,4.16
2019-03-27T02:57:36.599Z,4.11
2019-03-27T03:00:08.357Z,4.24
2019-03-27T03:02:34.191Z,4.20
2019-03-27T03:05:00.035Z,4.04
2019-03-27T03:07:25.873Z,3.95
2019-03-27T03:09:51.730Z,3.95
2019-03-27T03:12:17.574Z,3.85
2019-03-27T03:14:43.393Z,4.01
2019-03-27T03:17:09.244Z,4.07
2019-03-27T03:19:35.083Z,4.10
2019-03-27T03:22:00.933Z,3.98
2019-03-27T03:24:26.741Z,3.97
2019-03-27T03:26:52.595Z,3.82
2019-03-27T03:29:18.439Z,3.80
2019-03-27T03:31:44.353Z,3.83
2019-03-27T03:34:10.183Z,3.72
2019-03-27T03:36:36.018Z,3.78
2019-03-27T03:39:01.952Z,3.71
2019-03-27T03:41:27.782Z,3.64
2019-03-27T03:43:53.728Z,3.81
2019-03-27T03:46:19.559Z,4.05
2019-03-27T03:48:45.410Z,4.01
2019-03-27T03:51:11.628Z,4.04
2019-03-27T03:53:37.496Z,3.88
2019-03-27T03:56:03.726Z,3.69
2019-03-27T03:58:30.868Z,3.70
2019-03-27T04:00:58.919Z,3.70
2019-03-27T04:03:25.391Z,3.68
2019-03-27T04:05:51.526Z,3.62
2019-03-27T04:08:17.358Z,3.59
2019-03-27T04:10:43.320Z,3.55
2019-03-27T04:13:09.118Z,3.62
2019-03-27T04:15:34.995Z,3.86
2019-03-27T04:18:00.917Z,3.83
2019-03-27T04:20:26.781Z,3.74
2019-03-27T04:22:52.634Z,3.68
2019-03-27T04:25:21.508Z,3.68
2019-03-27T04:27:47.398Z,3.75
2019-03-27T04:30:13.403Z,3.70
2019-03-27T04:32:39.257Z,3.72
2019-03-27T04:35:05.596Z,3.68
2019-03-27T04:37:31.449Z,3.71
2019-03-27T04:39:57.310Z,3.65
2019-03-27T04:42:23.145Z,3.63
2019-03-27T04:44:48.970Z,3.61
2019-03-27T04:47:14.822Z,3.65
2019-03-27T04:49:40.644Z,3.67
2019-03-27T04:52:06.521Z,3.71
2019-03-27T04:54:32.373Z,3.67
2019-03-27T04:56:58.231Z,3.75
2019-03-27T04:59:24.080Z,3.72
2019-03-27T05:01:49.910Z,3.62
2019-03-27T05:04:15.961Z,3.68
2019-03-27T05:06:41.806Z,3.65
2019-03-27T05:09:07.657Z,3.74
2019-03-27T05:11:33.486Z,3.68
2019-03-27T05:13:59.343Z,3.75
2019-03-27T05:16:25.196Z,3.71
2019-03-27T05:18:51.045Z,3.66
2019-03-27T05:21:16.882Z,3.61
2019-03-27T05:23:42.740Z,3.79
2019-03-27T05:26:08.582Z,3.72
2019-03-27T05:28:34.406Z,3.72
2019-03-27T05:31:00.246Z,3.78
2019-03-27T05:33:26.115Z,3.98
2019-03-27T05:35:51.932Z,4.12
2019-03-27T05:38:17.770Z,4.05
2019-03-27T05:40:43.709Z,3.99
2019-03-27T05:43:09.564Z,3.80
2019-03-27T05:45:35.397Z,3.72
2019-03-27T05:48:01.246Z,3.77
2019-03-27T05:50:27.076Z,3.88
2019-03-27T05:52:52.935Z,3.88
2019-03-27T05:55:18.772Z,3.81
2019-03-27T05:57:44.613Z,3.81
2019-03-27T06:00:11.967Z,3.87
2019-03-27T06:02:37.820Z,3.90
2019-03-27T06:05:03.738Z,3.87
2019-03-27T06:07:29.554Z,3.76
2019-03-27T06:09:55.482Z,3.76
2019-03-27T06:12:21.318Z,3.87
2019-03-27T06:14:47.148Z,3.82
2019-03-27T06:17:13.009Z,3.79
2019-03-27T06:19:38.847Z,3.86
2019-03-27T06:22:04.710Z,3.93
2019-03-27T06:24:30.548Z,4.00
2019-03-27T06:26:56.413Z,4.10
2019-03-27T06:29:22.255Z,4.13
2019-03-27T06:31:48.092Z,4.38
2019-03-27T06:34:13.919Z,4.47
2019-03-27T06:36:39.802Z,4.60
2019-03-27T06:39:05.725Z,4.74
2019-03-27T06:41:31.598Z,4.73
2019-03-27T06:43:57.443Z,4.75
2019-03-27T06:46:23.292Z,4.81
2019-03-27T06:48:49.158Z,4.78
2019-03-27T06:51:15.308Z,4.92
2019-03-27T06:53:41.194Z,4.71
2019-03-27T06:56:07.023Z,4.71
2019-03-27T06:58:32.866Z,4.84
2019-03-27T07:00:58.688Z,4.73
2019-03-27T07:03:24.541Z,4.75
2019-03-27T07:05:50.369Z,4.72
2019-03-27T07:08:16.223Z,4.79
2019-03-27T07:10:42.173Z,4.78
2019-03-27T07:13:08.098Z,4.64
2019-03-27T07:15:35.665Z,4.62
2019-03-27T07:18:01.670Z,4.73
2019-03-27T07:20:27.526Z,4.72
2019-03-27T07:22:53.383Z,4.82
2019-03-27T07:25:19.314Z,4.86
2019-03-27T07:27:45.158Z,4.90
2019-03-27T07:30:11.508Z,4.93
2019-03-27T07:32:37.371Z,5.00
2019-03-27T07:35:04.135Z,5.04
2019-03-27T07:37:29.996Z,5.12
2019-03-27T07:39:55.861Z,5.20
2019-03-27T07:42:21.716Z,5.33
2019-03-27T07:44:47.618Z,5.26
2019-03-27T07:47:13.481Z,5.39
2019-03-27T07:49:39.313Z,5.30
2019-03-27T07:52:05.172Z,5.33
2019-03-27T07:54:31.031Z,5.48
2019-03-27T07:56:56.997Z,5.47
2019-03-27T07:59:22.834Z,5.52
2019-03-27T08:01:48.746Z,5.58
2019-03-27T08:04:14.736Z,5.69
2019-03-27T08:06:40.620Z,5.72
2019-03-27T08:09:06.778Z,5.75
2019-03-27T08:11:32.680Z,5.83
2019-03-27T08:13:58.573Z,5.81
2019-03-27T08:16:24.398Z,5.88
2019-03-27T08:18:50.249Z,5.84
2019-03-27T08:21:16.080Z,5.79
2019-03-27T08:23:41.971Z,5.86
2019-03-27T08:26:07.821Z,5.69
2019-03-27T08:28:33.693Z,5.77
2019-03-27T08:30:59.521Z,5.83
2019-03-27T08:33:25.380Z,5.64
2019-03-27T08:35:51.212Z,5.67
2019-03-27T08:38:17.070Z,5.63
2019-03-27T08:40:42.897Z,5.89
2019-03-27T08:43:20.757Z,5.72
2019-03-27T08:45:36.516Z,6.14
2019-03-27T08:48:02.979Z,6.14
2019-03-27T08:50:28.913Z,6.14
2019-03-27T08:52:54.750Z,6.30
2019-03-27T08:55:20.595Z,6.40
2019-03-27T08:57:46.436Z,6.49
2019-03-27T09:00:14.475Z,6.73
2019-03-27T09:02:40.351Z,6.72
2019-03-27T09:05:07.663Z,6.73
2019-03-27T09:07:33.595Z,6.68
2019-03-27T09:09:59.443Z,6.49
2019-03-27T09:12:25.267Z,6.49
2019-03-27T09:14:51.126Z,6.36
2019-03-27T09:17:16.966Z,6.30
2019-03-27T09:19:42.870Z,6.15
2019-03-27T09:22:08.697Z,6.32
2019-03-27T09:24:34.624Z,6.21
2019-03-27T09:27:00.465Z,6.09
2019-03-27T09:29:26.281Z,5.92
2019-03-27T09:31:52.141Z,5.93
2019-03-27T09:34:17.982Z,6.24
2019-03-27T09:36:43.841Z,6.06
2019-03-27T09:39:09.677Z,6.11
2019-03-27T09:41:35.563Z,6.07
2019-03-27T09:44:01.422Z,6.38
2019-03-27T09:46:27.264Z,6.34
2019-03-27T09:48:53.123Z,6.42
2019-03-27T09:51:18.964Z,6.63
2019-03-27T09:53:44.824Z,6.64
2019-03-27T09:56:18.915Z,6.62
2019-03-27T09:58:38.442Z,6.74
2019-03-27T10:01:04.690Z,6.74
2019-03-27T10:03:30.539Z,6.77
2019-03-27T10:05:56.386Z,6.78
2019-03-27T10:08:22.328Z,6.87
2019-03-27T10:10:48.873Z,6.96
2019-03-27T10:13:14.718Z,6.99
2019-03-27T10:15:40.556Z,7.17
2019-03-27T10:18:06.390Z,7.04
2019-03-27T10:20:32.219Z,7.08
2019-03-27T10:22:58.082Z,7.03
2019-03-27T10:25:24.014Z,7.29
2019-03-27T10:27:49.933Z,7.55
2019-03-27T10:30:15.948Z,7.31
2019-03-27T10:32:41.803Z,7.05
2019-03-27T10:35:07.855Z,6.73
2019-03-27T10:37:33.705Z,6.78
2019-03-27T10:39:59.556Z,6.84
2019-03-27T10:42:25.425Z,6.97
2019-03-27T10:44:51.264Z,7.09
2019-03-27T10:47:17.101Z,6.91
2019-03-27T10:49:42.947Z,6.90
2019-03-27T10:52:08.875Z,7.05
2019-03-27T10:54:34.742Z,6.90
2019-03-27T10:57:00.591Z,7.13
2019-03-27T10:59:26.449Z,7.05
2019-03-27T11:01:52.341Z,6.93
2019-03-27T11:04:18.209Z,6.99
2019-03-27T11:06:44.102Z,6.98
2019-03-27T11:09:10.368Z,6.88
2019-03-27T11:11:36.209Z,6.75
2019-03-27T11:14:02.072Z,6.75
2019-03-27T11:16:27.998Z,6.99
2019-03-27T11:18:53.833Z,7.09
2019-03-27T11:21:19.695Z,7.16
2019-03-27T11:23:45.551Z,7.37
2019-03-27T11:26:11.386Z,7.25
2019-03-27T11:28:37.499Z,7.34
2019-03-27T11:31:03.463Z,7.45
2019-03-27T11:33:29.304Z,7.30
2019-03-27T11:35:55.147Z,7.46
2019-03-27T11:38:20.977Z,7.36
2019-03-27T11:40:46.822Z,7.39
2019-03-27T11:43:12.669Z,7.65
2019-03-27T11:45:38.726Z,7.64
2019-03-27T11:48:07.961Z,7.77
2019-03-27T11:50:44.054Z,7.77
2019-03-27T11:53:00.520Z,7.69
2019-03-27T11:55:26.627Z,8.09
2019-03-27T11:57:52.483Z,7.77
2019-03-27T12:00:19.030Z,7.97
2019-03-27T12:02:44.873Z,8.16
2019-03-27T12:05:10.840Z,8.16
2019-03-27T12:07:36.672Z,7.97
2019-03-27T12:10:05.443Z,8.35
2019-03-27T12:12:31.345Z,8.11
2019-03-27T12:14:57.233Z,8.11
2019-03-27T12:17:23.112Z,8.37
2019-03-27T12:19:48.936Z,8.29
2019-03-27T12:22:14.771Z,8.19
2019-03-27T12:24:40.626Z,8.20
2019-03-27T12:27:06.450Z,8.22
2019-03-27T12:29:32.304Z,8.24
2019-03-27T12:31:58.141Z,8.34
2019-03-27T12:34:24.286Z,8.53
2019-03-27T12:36:50.117Z,8.62
2019-03-27T12:39:15.987Z,8.27
2019-03-27T12:41:41.807Z,8.23
2019-03-27T12:44:07.642Z,8.07
2019-03-27T12:46:33.499Z,8.28
2019-03-27T12:48:59.356Z,8.47
2019-03-27T12:51:25.213Z,8.82
2019-03-27T12:53:51.054Z,8.87
2019-03-27T12:56:16.908Z,9.16
2019-03-27T12:58:42.759Z,8.91
2019-03-27T13:01:08.628Z,8.97
2019-03-27T13:03:34.468Z,8.79
2019-03-27T13:06:00.312Z,8.89
2019-03-27T13:08:26.248Z,9.15
2019-03-27T13:10:52.093Z,9.13
2019-03-27T13:13:17.933Z,9.10
2019-03-27T13:15:43.761Z,8.86
2019-03-27T13:18:09.616Z,9.14
2019-03-27T13:20:35.462Z,8.98
2019-03-27T13:23:01.322Z,9.27
2019-03-27T13:25:27.169Z,9.17
2019-03-27T13:27:53.037Z,9.22
2019-03-27T13:30:19.174Z,9.08
2019-03-27T13:32:45.102Z,9.09
2019-03-27T13:35:11.859Z,9.02
2019-03-27T13:37:37.725Z,9.08
2019-03-27T13:40:06.485Z,9.08
2019-03-27T13:42:32.332Z,9.10
2019-03-27T13:44:58.165Z,9.29
2019-03-27T13:47:24.014Z,9.24
2019-03-27T13:49:49.855Z,9.17
2019-03-27T13:52:15.689Z,9.30
2019-03-27T13:54:41.556Z,9.60
2019-03-27T13:57:07.410Z,9.65
2019-03-27T13:59:33.254Z,9.65
2019-03-27T14:01:59.102Z,9.47
2019-03-27T14:04:24.936Z,9.33
2019-03-27T14:06:50.788Z,9.19
2019-03-27T14:09:16.619Z,9.10
2019-03-27T14:11:42.486Z,9.47
2019-03-27T14:14:11.470Z,9.58
2019-03-27T14:16:36.065Z,9.39
2019-03-27T14:19:01.921Z,9.48
2019-03-27T14:21:27.749Z,9.17
2019-03-27T14:23:53.615Z,9.47
2019-03-27T14:26:19.607Z,9.42
2019-03-27T14:28:45.604Z,9.32
2019-03-27T14:31:11.805Z,9.42
2019-03-27T14:33:37.723Z,9.43
2019-03-27T14:36:03.674Z,9.43
2019-03-27T14:38:29.539Z,9.33
2019-03-27T14:40:55.426Z,9.31
2019-03-27T14:43:21.305Z,8.82
2019-03-27T14:45:47.329Z,9.08
2019-03-27T14:48:13.200Z,8.85
2019-03-27T14:50:39.047Z,9.08
2019-03-27T14:53:05.043Z,9.26
2019-03-27T14:55:30.912Z,9.34
2019-03-27T14:57:56.888Z,9.34
2019-03-27T15:00:22.729Z,9.34
2019-03-27T15:02:48.573Z,9.23
2019-03-27T15:05:14.484Z,9.14
2019-03-27T15:07:40.367Z,8.97
2019-03-27T15:10:08.044Z,8.86
2019-03-27T15:12:34.017Z,8.72
2019-03-27T15:14:59.887Z,8.72
2019-03-27T15:17:25.744Z,8.67
2019-03-27T15:19:51.601Z,8.79
2019-03-27T15:22:22.799Z,8.96
2019-03-27T15:24:45.350Z,8.65
2019-03-27T15:27:11.211Z,8.65
2019-03-27T15:29:37.097Z,8.55
2019-03-27T15:32:03.153Z,8.66
2019-03-27T15:34:29.049Z,8.65
2019-03-27T15:36:54.926Z,8.74
2019-03-27T15:39:20.877Z,8.75
2019-03-27T15:41:46.735Z,8.69
2019-03-27T15:44:12.636Z,8.80
2019-03-27T15:46:38.528Z,8.75
2019-03-27T15:49:04.399Z,8.69
2019-03-27T15:51:30.236Z,8.63
2019-03-27T15:53:56.089Z,8.60
2019-03-27T15:56:21.952Z,8.55
2019-03-27T15:58:47.854Z,8.65
2019-03-27T16:01:13.714Z,8.78
2019-03-27T16:03:39.652Z,8.69
2019-03-27T16:06:05.632Z,8.64
2019-03-27T16:08:31.480Z,8.56
2019-03-27T16:10:57.329Z,8.56
2019-03-27T16:13:23.163Z,8.52
2019-03-27T16:15:49.142Z,8.58
2019-03-27T16:18:16.831Z,8.53
2019-03-27T16:20:42.770Z,8.46
2019-03-27T16:23:08.726Z,8.50
2019-03-27T16:25:35.043Z,8.51
2019-03-27T16:28:00.927Z,8.48
2019-03-27T16:30:26.845Z,8.52
2019-03-27T16:32:52.692Z,8.58
2019-03-27T16:35:18.537Z,8.48
2019-03-27T16:37:44.473Z,8.40
2019-03-27T16:40:10.829Z,8.39
2019-03-27T16:42:36.683Z,8.33
2019-03-27T16:45:04.859Z,8.30
2019-03-27T16:47:30.741Z,8.30
2019-03-27T16:49:56.597Z,8.37
2019-03-27T16:52:22.476Z,8.25
2019-03-27T16:54:48.339Z,8.11
2019-03-27T16:57:14.169Z,8.16
2019-03-27T16:59:40.020Z,8.16
2019-03-27T17:02:06.176Z,8.21
2019-03-27T17:04:32.095Z,8.15
2019-03-27T17:06:57.947Z,8.15
2019-03-27T17:09:23.816Z,8.23
2019-03-27T17:11:49.707Z,8.14
2019-03-27T17:14:15.548Z,8.04
2019-03-27T17:16:41.441Z,8.12
2019-03-27T17:19:07.290Z,8.12
2019-03-27T17:21:33.148Z,8.20
2019-03-27T17:23:58.992Z,8.16
2019-03-27T17:26:24.845Z,8.17
2019-03-27T17:28:50.666Z,8.12
2019-03-27T17:31:16.522Z,8.06
2019-03-27T17:33:42.357Z,8.06
2019-03-27T17:36:08.201Z,8.11
2019-03-27T17:38:34.054Z,8.10
2019-03-27T17:40:59.877Z,8.04
2019-03-27T17:43:25.729Z,7.96
2019-03-27T17:45:51.571Z,7.88
2019-03-27T17:48:17.457Z,7.99
2019-03-27T17:50:43.388Z,7.89
2019-03-27T17:53:09.243Z,7.87
2019-03-27T17:55:35.114Z,7.85
2019-03-27T17:58:00.995Z,7.83
2019-03-27T18:00:42.547Z,7.69
2019-03-27T18:03:08.439Z,7.73
2019-03-27T18:05:34.273Z,7.81
2019-03-27T18:08:00.149Z,7.84
2019-03-27T18:10:25.992Z,7.89
2019-03-27T18:12:51.832Z,7.87
2019-03-27T18:15:17.688Z,8.06
2019-03-27T18:17:43.537Z,8.17
2019-03-27T18:20:09.593Z,8.03
2019-03-27T18:22:35.435Z,7.86
2019-03-27T18:25:01.274Z,7.63
2019-03-27T18:27:27.120Z,7.57
2019-03-27T18:29:52.970Z,7.83
2019-03-27T18:32:18.839Z,7.95
2019-03-27T18:34:44.716Z,7.71
2019-03-27T18:37:10.599Z,7.71
2019-03-27T18:39:36.476Z,7.69
2019-03-27T18:42:02.518Z,7.59
2019-03-27T18:44:28.495Z,7.74
2019-03-27T18:46:55.386Z,7.74
2019-03-27T18:49:21.443Z,7.61
2019-03-27T18:51:47.432Z,7.45
2019-03-27T18:54:13.288Z,7.38
2019-03-27T18:56:39.168Z,7.40
2019-03-27T18:59:05.009Z,7.52
2019-03-27T19:01:30.972Z,7.43
2019-03-27T19:03:56.918Z,7.31
2019-03-27T19:06:22.792Z,7.19
2019-03-27T19:08:48.671Z,7.06
2019-03-27T19:11:14.518Z,6.98
2019-03-27T19:13:40.362Z,6.88
2019-03-27T19:16:06.310Z,6.93
2019-03-27T19:18:32.261Z,6.97
2019-03-27T19:20:58.133Z,7.03
2019-03-27T19:23:23.984Z,7.07
2019-03-27T19:25:50.066Z,7.08
2019-03-27T19:28:15.936Z,7.14
2019-03-27T19:30:41.794Z,6.93
2019-03-27T19:33:07.685Z,6.75
2019-03-27T19:35:33.558Z,6.44
2019-03-27T19:37:59.623Z,6.39
2019-03-27T19:40:25.462Z,6.29
2019-03-27T19:42:51.330Z,6.29
2019-03-27T19:45:17.286Z,6.22
2019-03-27T19:47:43.224Z,5.98
2019-03-27T19:50:09.293Z,6.08
2019-03-27T19:52:35.182Z,6.06
2019-03-27T19:55:01.075Z,6.06
2019-03-27T19:57:27.042Z,6.13
2019-03-27T19:59:53.039Z,6.02
2019-03-27T20:02:18.899Z,5.93
2019-03-27T20:04:44.807Z,5.77
2019-03-27T20:07:10.790Z,5.52
2019-03-27T20:09:36.643Z,5.44
2019-03-27T20:12:02.742Z,5.60
2019-03-27T20:14:28.720Z,5.77
2019-03-27T20:16:54.882Z,5.76
2019-03-27T20:19:20.754Z,5.75
2019-03-27T20:21:46.624Z,5.49
2019-03-27T20:24:12.476Z,5.33
2019-03-27T20:26:38.463Z,5.45
2019-03-27T20:29:04.427Z,5.47
2019-03-27T20:31:30.290Z,5.60
2019-03-27T20:33:56.134Z,5.74
2019-03-27T20:36:22.008Z,5.82
2019-03-27T20:38:47.865Z,5.78
2019-03-27T20:41:13.712Z,5.63
2019-03-27T20:43:39.604Z,5.46
2019-03-27T20:46:05.479Z,5.37
2019-03-27T20:48:31.372Z,5.39
2019-03-27T20:50:57.252Z,5.38
2019-03-27T20:53:23.152Z,5.24
2019-03-27T20:55:49.024Z,5.22
2019-03-27T20:58:14.874Z,5.11
2019-03-27T21:00:40.917Z,5.19
2019-03-27T21:03:06.908Z,5.28
2019-03-27T21:05:35.120Z,5.37
2019-03-27T21:08:00.577Z,5.36
2019-03-27T21:10:26.448Z,5.40
2019-03-27T21:12:52.293Z,5.43
2019-03-27T21:15:18.169Z,5.50
2019-03-27T21:17:44.012Z,5.57
2019-03-27T21:20:09.956Z,5.56
2019-03-27T21:22:35.867Z,5.56
2019-03-27T21:25:08.490Z,5.32
2019-03-27T21:27:30.311Z,5.05
2019-03-27T21:29:56.155Z,5.07
2019-03-27T21:32:22.039Z,5.20
2019-03-27T21:34:47.908Z,5.27
2019-03-27T21:37:13.765Z,5.31
2019-03-27T21:39:40.464Z,5.36
2019-03-27T21:42:06.334Z,5.44
2019-03-27T21:44:32.139Z,5.51
2019-03-27T21:46:58.015Z,5.57
2019-03-27T21:49:23.884Z,5.61
2019-03-27T21:51:49.739Z,5.80
2019-03-27T21:54:15.603Z,5.72
2019-03-27T21:56:41.459Z,5.56
2019-03-27T21:59:07.401Z,5.31
2019-03-27T22:01:33.229Z,5.26
2019-03-27T22:03:59.091Z,5.02
2019-03-27T22:06:24.933Z,5.00
2019-03-27T22:08:50.773Z,5.02
2019-03-27T22:11:16.682Z,4.98
2019-03-27T22:13:42.831Z,4.98
2019-03-27T22:16:08.665Z,5.00
2019-03-27T22:18:34.513Z,5.06
2019-03-27T22:21:00.369Z,5.14
2019-03-27T22:23:26.244Z,5.16
2019-03-27T22:25:52.092Z,5.14
2019-03-27T22:28:17.926Z,5.11
2019-03-27T22:30:43.782Z,5.16
2019-03-27T22:33:09.720Z,5.22
2019-03-27T22:35:35.550Z,5.07
2019-03-27T22:38:01.468Z,5.11
2019-03-27T22:40:27.315Z,5.28
2019-03-27T22:42:53.153Z,4.92
2019-03-27T22:45:19.089Z,5.03
2019-03-27T22:47:44.922Z,5.10
2019-03-27T22:50:11.237Z,5.18
2019-03-27T22:52:37.147Z,5.24
2019-03-27T22:55:05.674Z,5.27
2019-03-27T22:57:31.541Z,5.28
2019-03-27T22:59:57.402Z,5.18
2019-03-27T23:02:23.231Z,5.07
2019-03-27T23:04:49.083Z,4.95
2019-03-27T23:07:14.910Z,4.90
2019-03-27T23:09:40.776Z,4.91
2019-03-27T23:12:06.595Z,5.01
2019-03-27T23:14:32.473Z,5.00
2019-03-27T23:16:58.306Z,5.00
2019-03-27T23:19:24.138Z,4.98
2019-03-27T23:21:49.985Z,5.04
2019-03-27T23:24:15.821Z,4.99
2019-03-27T23:26:41.688Z,5.05
2019-03-27T23:29:07.521Z,5.08
2019-03-27T23:31:33.363Z,5.08
2019-03-27T23:34:00.484Z,4.87
2019-03-27T23:36:26.465Z,4.72
2019-03-27T23:38:52.308Z,4.72
2019-03-27T23:41:18.169Z,4.75
2019-03-27T23:43:44.018Z,4.75
2019-03-27T23:46:09.876Z,4.72
2019-03-27T23:48:35.740Z,4.69
2019-03-27T23:51:01.600Z,4.63
2019-03-27T23:53:27.452Z,4.66
2019-03-27T23:55:53.280Z,4.71
2019-03-27T23:58:19.136Z,4.69
